createdAt,value
2023-01-06T00:01:20.828Z,-0.37
2023-01-06T00:03:51.671Z,-0.42
2023-01-06T00:06:23.320Z,-0.44
2023-01-06T00:08:55.130Z,-0.42
2023-01-06T00:11:25.022Z,-0.49
2023-01-06T00:13:56.245Z,-0.54
2023-01-06T00:16:26.021Z,-0.57
2023-01-06T00:18:56.632Z,-0.58
2023-01-06T00:21:26.387Z,-0.57
2023-01-06T00:23:58.090Z,-0.56
2023-01-06T00:26:27.776Z,-0.57
2023-01-06T00:28:58.326Z,-0.55
2023-01-06T00:31:28.988Z,-0.55
2023-01-06T00:33:59.421Z,-0.53
2023-01-06T00:36:29.059Z,-0.52
2023-01-06T00:39:00.660Z,-0.54
2023-01-06T00:41:47.370Z,-0.53
2023-01-06T00:44:17.530Z,-0.53
2023-01-06T00:46:47.403Z,-0.52
2023-01-06T00:49:17.713Z,-0.50
2023-01-06T00:51:47.800Z,-0.51
2023-01-06T00:54:19.492Z,-0.51
2023-01-06T00:56:51.084Z,-0.50
2023-01-06T00:59:23.328Z,-0.49
2023-01-06T01:01:54.029Z,-0.49
2023-01-06T01:04:24.850Z,-0.51
2023-01-06T01:06:55.162Z,-0.50
2023-01-06T01:09:28.428Z,-0.52
2023-01-06T01:12:14.398Z,-0.58
2023-01-06T01:14:47.430Z,-0.61
2023-01-06T01:17:19.587Z,-0.59
2023-01-06T01:19:50.289Z,-0.55
2023-01-06T01:22:20.241Z,-0.50
2023-01-06T01:24:51.961Z,-0.56
2023-01-06T01:27:21.663Z,-0.53
2023-01-06T01:29:51.732Z,-0.57
2023-01-06T01:32:21.463Z,-0.58
2023-01-06T01:34:51.517Z,-0.60
2023-01-06T01:37:21.218Z,-0.62
2023-01-06T01:39:53.765Z,-0.60
2023-01-06T01:42:23.481Z,-0.58
2023-01-06T01:44:55.682Z,-0.62
2023-01-06T01:47:27.992Z,-0.62
2023-01-06T01:50:00.403Z,-0.65
2023-01-06T01:52:30.260Z,-0.65
2023-01-06T01:55:03.248Z,-0.67
2023-01-06T01:57:36.845Z,-0.68
2023-01-06T02:00:07.807Z,-0.76
2023-01-06T02:02:44.031Z,-0.74
2023-01-06T02:05:17.955Z,-0.73
2023-01-06T02:07:49.128Z,-0.73
2023-01-06T02:10:22.234Z,-0.76
2023-01-06T02:12:54.283Z,-0.87
2023-01-06T02:15:25.761Z,-0.87
2023-01-06T02:18:23.593Z,-0.89
2023-01-06T02:20:58.213Z,-0.89
2023-01-06T02:23:42.307Z,-0.96
2023-01-06T02:26:41.404Z,-0.94
2023-01-06T02:29:31.868Z,-0.98
2023-01-06T02:32:04.040Z,-0.98
2023-01-06T02:34:42.475Z,-1.03
2023-01-06T02:37:19.794Z,-1.03
2023-01-06T02:39:58.121Z,-0.97
2023-01-06T02:42:32.169Z,-0.97
2023-01-06T02:45:04.829Z,-0.99
2023-01-06T02:47:36.849Z,-1.05
2023-01-06T02:50:13.935Z,-1.05
2023-01-06T02:52:46.424Z,-1.13
2023-01-06T02:55:21.180Z,-1.13
2023-01-06T02:57:53.676Z,-1.08
2023-01-06T03:00:26.259Z,-1.12
2023-01-06T03:02:58.549Z,-1.14
2023-01-06T03:05:31.260Z,-1.15
2023-01-06T03:08:03.527Z,-1.17
2023-01-06T03:10:33.588Z,-1.19
2023-01-06T03:13:07.230Z,-1.16
2023-01-06T03:15:37.687Z,-1.18
2023-01-06T03:18:08.130Z,-1.18
2023-01-06T03:20:40.342Z,-1.21
2023-01-06T03:23:10.460Z,-1.21
2023-01-06T03:25:40.199Z,-1.26
2023-01-06T03:28:11.809Z,-1.28
2023-01-06T03:30:47.379Z,-1.22
2023-01-06T03:33:22.789Z,-1.26
2023-01-06T03:36:02.478Z,-1.19
2023-01-06T03:38:36.437Z,-1.20
2023-01-06T03:41:12.471Z,-1.16
2023-01-06T03:43:44.681Z,-1.21
2023-01-06T03:46:19.345Z,-1.16
2023-01-06T03:48:55.210Z,-1.27
2023-01-06T03:51:38.477Z,-1.27
2023-01-06T03:54:15.973Z,-1.29
2023-01-06T03:56:48.460Z,-1.28
2023-01-06T03:59:20.460Z,-1.29
2023-01-06T04:01:52.623Z,-1.25
2023-01-06T04:04:24.190Z,-1.23
2023-01-06T04:06:56.613Z,-1.30
2023-01-06T04:09:27.471Z,-1.30
2023-01-06T04:12:14.449Z,-1.30
2023-01-06T04:14:44.501Z,-1.27
2023-01-06T04:17:14.282Z,-1.25
2023-01-06T04:19:45.742Z,-1.28
2023-01-06T04:22:17.373Z,-1.31
2023-01-06T04:24:47.602Z,-1.33
2023-01-06T04:27:17.631Z,-1.33
2023-01-06T04:29:47.771Z,-1.33
2023-01-06T04:32:17.673Z,-1.38
2023-01-06T04:34:48.442Z,-1.29
2023-01-06T04:37:21.431Z,-1.30
2023-01-06T04:39:51.906Z,-1.33
2023-01-06T04:42:21.661Z,-1.33
2023-01-06T04:44:51.618Z,-1.34
2023-01-06T04:47:21.324Z,-1.36
2023-01-06T04:49:51.270Z,-1.37
2023-01-06T04:52:22.485Z,-1.36
2023-01-06T04:54:52.495Z,-1.39
2023-01-06T04:57:22.258Z,-1.32
2023-01-06T04:59:52.223Z,-1.31
2023-01-06T05:02:21.908Z,-1.36
2023-01-06T05:04:51.942Z,-1.36
2023-01-06T05:07:23.149Z,-1.34
2023-01-06T05:09:53.272Z,-1.38
2023-01-06T05:12:23.126Z,-1.35
2023-01-06T05:14:53.142Z,-1.29
2023-01-06T05:17:23.018Z,-1.27
2023-01-06T05:19:53.089Z,-1.29
2023-01-06T05:22:24.286Z,-1.31
2023-01-06T05:24:54.328Z,-1.28
2023-01-06T05:27:24.002Z,-1.27
2023-01-06T05:29:54.076Z,-1.32
2023-01-06T05:32:23.783Z,-1.32
2023-01-06T05:34:53.802Z,-1.34
2023-01-06T05:37:24.919Z,-1.37
2023-01-06T05:39:55.009Z,-1.38
2023-01-06T05:42:24.791Z,-1.38
2023-01-06T05:44:54.815Z,-1.39
2023-01-06T05:47:24.518Z,-1.38
2023-01-06T05:49:54.595Z,-1.35
2023-01-06T05:52:25.806Z,-1.37
2023-01-06T05:54:56.002Z,-1.38
2023-01-06T05:57:25.662Z,-1.36
2023-01-06T05:59:55.628Z,-1.37
2023-01-06T06:02:25.356Z,-1.31
2023-01-06T06:04:55.352Z,-1.32
2023-01-06T06:07:26.582Z,-1.34
2023-01-06T06:09:56.511Z,-1.46
2023-01-06T06:12:26.305Z,-1.48
2023-01-06T06:14:56.394Z,-1.44
2023-01-06T06:17:26.103Z,-1.45
2023-01-06T06:19:56.081Z,-1.45
2023-01-06T06:22:27.355Z,-1.44
2023-01-06T06:24:57.444Z,-1.43
2023-01-06T06:27:27.463Z,-1.45
2023-01-06T06:29:57.582Z,-1.46
2023-01-06T06:32:27.552Z,-1.48
2023-01-06T06:34:57.548Z,-1.45
2023-01-06T06:37:28.860Z,-1.46
2023-01-06T06:39:58.979Z,-1.39
2023-01-06T06:42:28.582Z,-1.39
2023-01-06T06:44:58.523Z,-1.49
2023-01-06T06:47:28.324Z,-1.48
2023-01-06T06:49:58.421Z,-1.48
2023-01-06T06:52:29.863Z,-1.49
2023-01-06T06:54:59.880Z,-1.51
2023-01-06T06:57:29.654Z,-1.46
2023-01-06T06:59:59.647Z,-1.45
2023-01-06T07:02:29.263Z,-1.40
2023-01-06T07:04:59.492Z,-1.48
2023-01-06T07:07:30.731Z,-1.56
2023-01-06T07:10:00.820Z,-1.55
2023-01-06T07:12:30.503Z,-1.55
2023-01-06T07:15:00.640Z,-1.55
2023-01-06T07:17:30.396Z,-1.51
2023-01-06T07:20:00.515Z,-1.49
2023-01-06T07:22:31.790Z,-1.53
2023-01-06T07:25:01.858Z,-1.54
2023-01-06T07:27:31.563Z,-1.54
2023-01-06T07:30:01.617Z,-1.53
2023-01-06T07:32:31.330Z,-1.55
2023-01-06T07:35:01.398Z,-1.51
2023-01-06T07:37:32.481Z,-1.53
2023-01-06T07:40:02.577Z,-1.56
2023-01-06T07:42:32.217Z,-1.51
2023-01-06T07:45:02.380Z,-1.54
2023-01-06T07:47:32.219Z,-1.53
2023-01-06T07:50:02.596Z,-1.54
2023-01-06T07:52:33.994Z,-1.49
2023-01-06T07:55:04.321Z,-1.50
2023-01-06T07:57:34.180Z,-1.52
2023-01-06T08:00:04.669Z,-1.50
2023-01-06T08:02:41.674Z,-1.50
2023-01-06T08:05:12.201Z,-1.49
2023-01-06T08:07:43.564Z,-1.50
2023-01-06T08:10:13.830Z,-1.52
2023-01-06T08:12:43.721Z,-1.50
2023-01-06T08:15:14.024Z,-1.50
2023-01-06T08:17:43.901Z,-1.48
2023-01-06T08:20:14.039Z,-1.49
2023-01-06T08:22:45.461Z,-1.46
2023-01-06T08:25:15.527Z,-1.48
2023-01-06T08:27:45.271Z,-1.45
2023-01-06T08:30:20.323Z,-1.43
2023-01-06T08:32:50.125Z,-1.48
2023-01-06T08:35:20.401Z,-1.52
2023-01-06T08:37:51.578Z,-1.56
2023-01-06T08:40:21.710Z,-1.59
2023-01-06T08:42:51.473Z,-1.63
2023-01-06T08:45:21.619Z,-1.63
2023-01-06T08:47:51.269Z,-1.66
2023-01-06T08:50:21.304Z,-1.67
2023-01-06T08:52:52.444Z,-1.64
2023-01-06T08:55:22.531Z,-1.64
2023-01-06T08:57:54.756Z,-1.60
2023-01-06T09:00:25.928Z,-1.61
2023-01-06T09:02:56.057Z,-1.62
2023-01-06T09:05:26.582Z,-1.65
2023-01-06T09:07:58.086Z,-1.70
2023-01-06T09:10:28.551Z,-1.67
2023-01-06T09:12:58.515Z,-1.59
2023-01-06T09:15:28.891Z,-1.59
2023-01-06T09:17:58.583Z,-1.60
2023-01-06T09:20:28.835Z,-1.59
2023-01-06T09:23:00.503Z,-1.61
2023-01-06T09:25:30.529Z,-1.63
2023-01-06T09:28:00.603Z,-1.57
2023-01-06T09:30:30.742Z,-1.60
2023-01-06T09:33:00.661Z,-1.56
2023-01-06T09:35:30.712Z,-1.55
2023-01-06T09:38:02.122Z,-1.56
2023-01-06T09:40:37.971Z,-1.56
2023-01-06T09:43:14.290Z,-1.59
2023-01-06T09:45:48.237Z,-1.59
2023-01-06T09:48:20.900Z,-1.59
2023-01-06T09:50:55.095Z,-1.59
2023-01-06T09:53:27.759Z,-1.68
2023-01-06T09:56:00.999Z,-1.69
2023-01-06T09:58:34.604Z,-1.70
2023-01-06T10:01:06.300Z,-1.78
2023-01-06T10:03:39.026Z,-1.80
2023-01-06T10:06:18.106Z,-1.82
2023-01-06T10:08:56.760Z,-1.84
2023-01-06T10:11:30.281Z,-1.84
2023-01-06T10:14:06.761Z,-1.85
2023-01-06T10:16:45.409Z,-1.82
2023-01-06T10:19:24.212Z,-1.82
2023-01-06T10:21:58.462Z,-1.87
2023-01-06T10:24:42.333Z,-1.83
2023-01-06T10:27:21.768Z,-1.82
2023-01-06T10:29:54.219Z,-1.83
2023-01-06T10:32:26.658Z,-1.77
2023-01-06T10:34:57.992Z,-1.80
2023-01-06T10:37:39.105Z,-1.83
2023-01-06T10:40:19.783Z,-1.85
2023-01-06T10:42:58.095Z,-1.88
2023-01-06T10:45:34.755Z,-1.90
2023-01-06T10:48:06.194Z,-1.91
2023-01-06T10:50:36.630Z,-1.90
2023-01-06T10:53:07.345Z,-1.91
2023-01-06T10:55:40.840Z,-1.92
2023-01-06T10:58:19.007Z,-1.79
2023-01-06T11:00:56.080Z,-1.80
2023-01-06T11:03:33.476Z,-1.83
2023-01-06T11:06:06.893Z,-1.81
2023-01-06T11:08:37.813Z,-1.83
2023-01-06T11:11:27.849Z,-1.81
2023-01-06T11:13:59.553Z,-1.79
2023-01-06T11:16:30.694Z,-1.77
2023-01-06T11:19:02.839Z,-1.79
2023-01-06T11:21:41.850Z,-1.71
2023-01-06T11:24:17.684Z,-1.63
2023-01-06T11:26:53.032Z,-1.64
2023-01-06T11:29:29.559Z,-1.68
2023-01-06T11:32:03.002Z,-1.64
2023-01-06T11:34:33.464Z,-1.67
2023-01-06T11:37:03.290Z,-1.69
2023-01-06T11:39:35.078Z,-1.68
2023-01-06T11:42:10.500Z,-1.73
2023-01-06T11:44:41.703Z,-1.76
2023-01-06T11:47:17.201Z,-1.75
2023-01-06T11:49:49.688Z,-1.74
2023-01-06T11:52:25.549Z,-1.75
2023-01-06T11:55:00.091Z,-1.76
2023-01-06T11:57:35.804Z,-1.73
2023-01-06T12:00:20.608Z,-1.69
2023-01-06T12:02:54.408Z,-1.67
2023-01-06T12:05:30.496Z,-1.64
2023-01-06T12:08:00.217Z,-1.62
2023-01-06T12:10:34.779Z,-1.60
2023-01-06T12:13:06.030Z,-1.69
2023-01-06T12:15:37.109Z,-1.62
2023-01-06T12:18:09.728Z,-1.59
2023-01-06T12:20:42.679Z,-1.61
2023-01-06T12:23:14.440Z,-1.62
2023-01-06T12:25:46.224Z,-1.67
2023-01-06T12:28:18.822Z,-1.67
2023-01-06T12:30:53.902Z,-1.65
2023-01-06T12:33:28.131Z,-1.68
2023-01-06T12:36:01.181Z,-1.70
2023-01-06T12:38:40.861Z,-1.67
2023-01-06T12:41:14.342Z,-1.71
2023-01-06T12:43:53.694Z,-1.68
2023-01-06T12:46:28.001Z,-1.61
2023-01-06T12:48:59.715Z,-1.72
2023-01-06T12:51:32.183Z,-1.71
2023-01-06T12:54:03.931Z,-1.73
2023-01-06T12:56:44.462Z,-1.75
2023-01-06T12:59:20.049Z,-1.82
2023-01-06T13:01:52.985Z,-1.84
2023-01-06T13:04:36.106Z,-1.81
2023-01-06T13:07:13.435Z,-1.81
2023-01-06T13:09:49.580Z,-1.79
2023-01-06T13:12:47.355Z,-1.80
2023-01-06T13:15:21.341Z,-1.81
2023-01-06T13:17:55.363Z,-1.81
2023-01-06T13:20:27.580Z,-1.78
2023-01-06T13:23:04.999Z,-1.82
2023-01-06T13:25:45.830Z,-1.81
2023-01-06T13:28:21.937Z,-1.82
2023-01-06T13:31:18.881Z,-1.93
2023-01-06T13:34:10.319Z,-1.96
2023-01-06T13:36:59.458Z,-2.07
2023-01-06T13:39:34.430Z,-2.10
2023-01-06T13:42:06.016Z,-2.13
2023-01-06T13:44:38.248Z,-2.10
2023-01-06T13:47:10.960Z,-2.13
2023-01-06T13:49:42.903Z,-2.06
2023-01-06T13:52:17.705Z,-2.11
2023-01-06T13:55:01.784Z,-2.09
2023-01-06T13:57:35.740Z,-2.10
2023-01-06T14:00:20.728Z,-2.13
2023-01-06T14:03:17.692Z,-2.17
2023-01-06T14:05:53.716Z,-2.18
2023-01-06T14:08:25.513Z,-2.23
2023-01-06T14:11:01.101Z,-2.24
2023-01-06T14:13:32.823Z,-2.22
2023-01-06T14:16:05.488Z,-2.21
2023-01-06T14:18:40.329Z,-2.25
2023-01-06T14:21:30.850Z,-2.25
2023-01-06T14:24:03.464Z,-2.28
2023-01-06T14:26:47.427Z,-2.30
2023-01-06T14:29:35.387Z,-2.29
2023-01-06T14:32:05.438Z,-2.27
2023-01-06T14:34:36.479Z,-2.28
2023-01-06T14:37:07.300Z,-2.28
2023-01-06T14:39:40.300Z,-2.28
2023-01-06T14:42:16.557Z,-2.30
2023-01-06T14:44:48.381Z,-2.32
2023-01-06T14:47:22.860Z,-2.30
2023-01-06T14:49:56.369Z,-2.32
2023-01-06T14:52:31.489Z,-2.31
2023-01-06T14:55:03.392Z,-2.29
2023-01-06T14:57:36.072Z,-2.27
2023-01-06T15:00:06.653Z,-2.27
2023-01-06T15:02:37.031Z,-2.27
2023-01-06T15:05:07.683Z,-2.28
2023-01-06T15:07:37.820Z,-2.27
2023-01-06T15:10:22.644Z,-2.24
2023-01-06T15:12:57.205Z,-2.24
2023-01-06T15:15:28.549Z,-2.24
2023-01-06T15:17:59.284Z,-2.23
2023-01-06T15:20:30.499Z,-2.21
2023-01-06T15:23:01.332Z,-2.22
2023-01-06T15:25:34.029Z,-2.23
2023-01-06T15:28:04.197Z,-2.22
2023-01-06T15:30:36.944Z,-2.22
2023-01-06T15:33:07.073Z,-2.21
2023-01-06T15:35:37.136Z,-2.20
2023-01-06T15:38:11.849Z,-2.19
2023-01-06T15:40:43.150Z,-2.16
2023-01-06T15:43:15.752Z,-2.15
2023-01-06T15:45:46.779Z,-2.15
2023-01-06T15:48:20.383Z,-2.14
2023-01-06T15:50:52.075Z,-2.11
2023-01-06T15:53:24.909Z,-2.10
2023-01-06T15:55:57.053Z,-2.08
2023-01-06T15:58:30.612Z,-2.07
2023-01-06T16:01:02.522Z,-2.04
2023-01-06T16:03:33.541Z,-2.04
2023-01-06T16:06:11.764Z,-2.01
2023-01-06T16:08:42.583Z,-1.99
2023-01-06T16:11:42.592Z,-1.97
2023-01-06T16:14:26.704Z,-1.98
2023-01-06T16:17:03.133Z,-1.96
2023-01-06T16:19:34.209Z,-1.94
2023-01-06T16:22:06.530Z,-1.94
2023-01-06T16:24:36.670Z,-1.95
2023-01-06T16:27:08.212Z,-1.91
2023-01-06T16:29:39.852Z,-1.92
2023-01-06T16:32:21.832Z,-1.88
2023-01-06T16:34:53.165Z,-1.86
2023-01-06T16:37:23.111Z,-1.85
2023-01-06T16:39:59.210Z,-1.84
2023-01-06T16:42:43.858Z,-1.82
2023-01-06T16:45:16.895Z,-1.82
2023-01-06T16:47:47.392Z,-1.79
2023-01-06T16:50:19.827Z,-1.76
2023-01-06T16:52:52.432Z,-1.74
2023-01-06T16:55:24.272Z,-1.73
2023-01-06T16:57:55.804Z,-1.72
2023-01-06T17:00:26.116Z,-1.70
2023-01-06T17:02:55.862Z,-1.70
2023-01-06T17:05:30.390Z,-1.66
2023-01-06T17:08:02.274Z,-1.67
2023-01-06T17:10:32.762Z,-1.65
2023-01-06T17:13:21.812Z,-1.64
2023-01-06T17:15:52.812Z,-1.63
2023-01-06T17:18:24.455Z,-1.62
2023-01-06T17:20:56.681Z,-1.59
2023-01-06T17:23:26.668Z,-1.57
2023-01-06T17:26:02.090Z,-1.58
2023-01-06T17:28:35.458Z,-1.57
2023-01-06T17:31:08.445Z,-1.56
2023-01-06T17:33:38.617Z,-1.55
2023-01-06T17:36:17.272Z,-1.54
2023-01-06T17:38:49.297Z,-1.53
2023-01-06T17:41:20.103Z,-1.51
2023-01-06T17:43:51.544Z,-1.50
2023-01-06T17:46:26.625Z,-1.50
2023-01-06T17:49:01.993Z,-1.49
2023-01-06T17:51:32.031Z,-1.48
2023-01-06T17:54:20.014Z,-1.46
2023-01-06T17:56:50.132Z,-1.44
2023-01-06T17:59:21.233Z,-1.44
2023-01-06T18:01:53.101Z,-1.42
2023-01-06T18:04:23.187Z,-1.39
2023-01-06T18:06:55.701Z,-1.40
2023-01-06T18:09:25.940Z,-1.38
2023-01-06T18:12:00.147Z,-1.37
2023-01-06T18:14:33.815Z,-1.36
2023-01-06T18:17:08.333Z,-1.33
2023-01-06T18:19:38.863Z,-1.31
2023-01-06T18:22:16.294Z,-1.28
2023-01-06T18:24:47.356Z,-1.26
2023-01-06T18:27:20.953Z,-1.26
2023-01-06T18:29:53.119Z,-1.23
2023-01-06T18:32:32.397Z,-1.21
2023-01-06T18:35:04.070Z,-1.19
2023-01-06T18:37:35.455Z,-1.18
2023-01-06T18:40:06.491Z,-1.17
2023-01-06T18:42:42.039Z,-1.15
2023-01-06T18:45:23.491Z,-1.15
2023-01-06T18:47:55.475Z,-1.12
2023-01-06T18:50:27.830Z,-1.12
2023-01-06T18:52:58.536Z,-1.11
2023-01-06T18:55:42.967Z,-1.08
2023-01-06T18:58:28.024Z,-1.07
2023-01-06T19:01:00.083Z,-1.06
2023-01-06T19:03:31.875Z,-1.05
2023-01-06T19:06:16.890Z,-1.02
2023-01-06T19:08:48.391Z,-1.00
2023-01-06T19:11:19.654Z,-0.96
2023-01-06T19:13:50.762Z,-0.95
2023-01-06T19:16:38.932Z,-0.93
2023-01-06T19:19:29.778Z,-0.91
2023-01-06T19:22:10.325Z,-0.88
2023-01-06T19:24:43.494Z,-0.87
2023-01-06T19:27:29.320Z,-0.84
2023-01-06T19:30:05.626Z,-0.84
2023-01-06T19:32:37.780Z,-0.82
2023-01-06T19:35:12.377Z,-0.82
2023-01-06T19:37:43.702Z,-0.82
2023-01-06T19:40:23.342Z,-0.79
2023-01-06T19:42:53.132Z,-0.79
2023-01-06T19:45:29.531Z,-0.74
2023-01-06T19:48:00.703Z,-0.72
2023-01-06T19:50:33.373Z,-0.69
2023-01-06T19:53:05.305Z,-0.65
2023-01-06T19:55:35.495Z,-0.68
2023-01-06T19:58:06.985Z,-0.67
2023-01-06T20:00:45.692Z,-0.66
2023-01-06T20:03:24.951Z,-0.64
2023-01-06T20:05:55.455Z,-0.66
2023-01-06T20:08:27.141Z,-0.66
2023-01-06T20:10:57.272Z,-0.65
2023-01-06T20:13:27.031Z,-0.66
2023-01-06T20:15:57.237Z,-0.62
2023-01-06T20:18:26.934Z,-0.64
2023-01-06T20:20:57.077Z,-0.62
2023-01-06T20:23:28.240Z,-0.61
2023-01-06T20:25:58.343Z,-0.62
2023-01-06T20:28:28.091Z,-0.60
2023-01-06T20:30:58.222Z,-0.60
2023-01-06T20:33:28.052Z,-0.60
2023-01-06T20:35:58.358Z,-0.60
2023-01-06T20:38:29.671Z,-0.58
2023-01-06T20:40:59.967Z,-0.58
2023-01-06T20:43:29.656Z,-0.56
2023-01-06T20:45:59.875Z,-0.55
2023-01-06T20:48:29.706Z,-0.57
2023-01-06T20:51:00.037Z,-0.56
2023-01-06T20:53:31.221Z,-0.56
2023-01-06T20:56:01.378Z,-0.57
2023-01-06T20:58:31.623Z,-0.56
2023-01-06T21:01:02.001Z,-0.53
2023-01-06T21:03:32.011Z,-0.54
2023-01-06T21:06:02.346Z,-0.54
2023-01-06T21:08:33.569Z,-0.53
2023-01-06T21:11:03.817Z,-0.53
2023-01-06T21:13:33.529Z,-0.54
2023-01-06T21:16:03.665Z,-0.53
2023-01-06T21:18:34.813Z,-0.52
2023-01-06T21:21:04.992Z,-0.51
2023-01-06T21:23:36.235Z,-0.48
2023-01-06T21:26:06.606Z,-0.50
2023-01-06T21:28:36.321Z,-0.51
2023-01-06T21:31:06.826Z,-0.47
2023-01-06T21:33:36.543Z,-0.49
2023-01-06T21:36:06.852Z,-0.46
2023-01-06T21:38:38.144Z,-0.49
2023-01-06T21:41:21.879Z,-0.48
2023-01-06T21:43:51.514Z,-0.39
2023-01-06T21:46:21.680Z,-0.38
2023-01-06T21:48:51.487Z,-0.40
2023-01-06T21:51:21.614Z,-0.41
2023-01-06T21:53:53.017Z,-0.40
2023-01-06T21:56:23.181Z,-0.39
2023-01-06T21:58:53.051Z,-0.37
2023-01-06T22:01:23.444Z,-0.33
2023-01-06T22:03:53.410Z,-0.34
2023-01-06T22:06:23.680Z,-0.33
2023-01-06T22:08:55.155Z,-0.33
2023-01-06T22:11:25.181Z,-0.32
2023-01-06T22:13:55.090Z,-0.28
2023-01-06T22:16:25.501Z,-0.25
2023-01-06T22:18:57.534Z,-0.23
2023-01-06T22:21:27.861Z,-0.21
2023-01-06T22:23:59.283Z,-0.22
2023-01-06T22:26:29.257Z,-0.24
2023-01-06T22:28:59.032Z,-0.26
2023-01-06T22:31:29.171Z,-0.22
2023-01-06T22:33:59.121Z,-0.18
2023-01-06T22:36:29.159Z,-0.19
2023-01-06T22:39:00.517Z,-0.15
2023-01-06T22:41:30.772Z,-0.15
2023-01-06T22:44:00.634Z,-0.13
2023-01-06T22:46:30.857Z,-0.14
2023-01-06T22:49:00.574Z,-0.14
2023-01-06T22:51:30.730Z,-0.16
2023-01-06T22:54:01.966Z,-0.16
2023-01-06T22:56:32.101Z,-0.18
2023-01-06T22:59:01.918Z,-0.18
2023-01-06T23:01:32.094Z,-0.16
2023-01-06T23:04:03.671Z,-0.18
2023-01-06T23:06:34.471Z,-0.15
2023-01-06T23:09:05.956Z,-0.14
2023-01-06T23:11:41.800Z,-0.13
2023-01-06T23:14:12.165Z,-0.10
2023-01-06T23:16:42.607Z,-0.08
2023-01-06T23:19:14.775Z,-0.10
2023-01-06T23:21:45.794Z,-0.13
2023-01-06T23:24:16.943Z,-0.12
2023-01-06T23:26:48.832Z,-0.13
2023-01-06T23:29:18.627Z,-0.09
2023-01-06T23:31:48.751Z,-0.03
2023-01-06T23:34:19.640Z,-0.08
2023-01-06T23:36:49.794Z,-0.17
2023-01-06T23:39:21.099Z,-0.13
2023-01-06T23:41:51.264Z,-0.03
2023-01-06T23:44:21.055Z,-0.06
2023-01-06T23:46:51.244Z,-0.13
2023-01-06T23:49:21.041Z,-0.06
2023-01-06T23:51:51.367Z,-0.03
2023-01-06T23:54:22.636Z,0.15
2023-01-06T23:56:52.874Z,0.23
2023-01-06T23:59:22.654Z,0.17
